createdAt,value
2018-09-09T00:05:51.736Z,18.31
2018-09-09T00:11:46.745Z,22.15
2018-09-09T00:17:41.787Z,21.87
2018-09-09T00:23:36.743Z,21.5
2018-09-09T00:29:31.740Z,18.44
2018-09-09T00:35:26.768Z,17.89
2018-09-09T00:41:21.751Z,19.5
2018-09-09T00:47:16.759Z,20.04
2018-09-09T00:53:11.760Z,20.23
2018-09-09T00:59:06.769Z,19.32
2018-09-09T01:05:01.792Z,17.3
2018-09-09T01:10:56.780Z,15.14
2018-09-09T01:16:51.790Z,15.87
2018-09-09T01:22:46.769Z,17.89
2018-09-09T01:28:41.868Z,20
2018-09-09T01:34:36.833Z,14.41
2018-09-09T01:40:31.801Z,19.34
2018-09-09T01:46:26.812Z,16.83
2018-09-09T01:52:21.815Z,15.66
2018-09-09T01:58:16.889Z,16.52
2018-09-09T02:04:11.799Z,12.44
2018-09-09T02:10:06.848Z,12.74
2018-09-09T02:16:01.842Z,23.04
2018-09-09T02:21:56.878Z,17.45
2018-09-09T02:27:51.855Z,16.96
2018-09-09T02:33:46.826Z,18.95
2018-09-09T02:39:41.820Z,17.67
2018-09-09T02:45:36.836Z,21.67
2018-09-09T02:51:31.846Z,20.23
2018-09-09T02:57:26.837Z,20.07
2018-09-09T03:03:21.861Z,15.77
2018-09-09T03:09:16.838Z,15.44
2018-09-09T03:15:11.856Z,18.35
2018-09-09T03:21:06.844Z,18.95
2018-09-09T03:27:01.860Z,18.96
2018-09-09T03:32:56.880Z,19.39
2018-09-09T03:38:51.902Z,19
2018-09-09T03:44:46.916Z,17.33
2018-09-09T03:50:41.881Z,18.74
2018-09-09T03:56:36.882Z,16.31
2018-09-09T04:02:31.935Z,15.5
2018-09-09T04:08:26.879Z,22.24
2018-09-09T04:14:21.903Z,19.94
2018-09-09T04:20:16.908Z,18.16
2018-09-09T04:26:11.959Z,20.7
2018-09-09T04:32:06.924Z,18.3
2018-09-09T04:38:01.895Z,19.82
2018-09-09T04:43:56.978Z,20.42
2018-09-09T04:49:51.928Z,17.72
2018-09-09T04:55:46.907Z,15.02
2018-09-09T05:01:41.912Z,13.4
2018-09-09T05:07:36.912Z,15.13
2018-09-09T05:13:31.930Z,17.02
2018-09-09T05:19:26.942Z,32.65
2018-09-09T05:25:21.930Z,228.37
2018-09-09T05:31:16.938Z,115.62
2018-09-09T05:37:11.927Z,78.78
2018-09-09T05:43:06.944Z,45.46
2018-09-09T05:49:01.952Z,37.96
2018-09-09T05:54:56.987Z,28.07
2018-09-09T06:00:51.951Z,26.77
2018-09-09T06:06:47.015Z,20.48
2018-09-09T06:12:41.953Z,24.33
2018-09-09T06:18:36.968Z,26.73
2018-09-09T06:24:31.979Z,28.55
2018-09-09T06:30:26.984Z,24.99
2018-09-09T06:36:21.973Z,26.39
2018-09-09T06:42:16.965Z,24.83
2018-09-09T06:48:11.995Z,28.11
2018-09-09T06:54:06.978Z,27.42
2018-09-09T07:00:02.276Z,29.38
2018-09-09T07:05:57.040Z,29.35
2018-09-09T07:11:52.196Z,28.13
2018-09-09T07:17:47.002Z,26.33
2018-09-09T07:23:42.014Z,26.41
2018-09-09T07:29:37.005Z,29.6
2018-09-09T07:35:32.003Z,33.8
2018-09-09T07:41:27.027Z,27.09
2018-09-09T07:47:22.078Z,21.94
2018-09-09T07:53:17.031Z,22.01
2018-09-09T07:59:12.044Z,26.41
2018-09-09T08:05:07.011Z,19.63
2018-09-09T08:11:02.018Z,18.29
2018-09-09T08:16:57.034Z,16.34
2018-09-09T08:22:52.029Z,21.71
2018-09-09T08:28:47.022Z,15.53
2018-09-09T08:34:42.038Z,14.22
2018-09-09T08:40:37.075Z,12.7
2018-09-09T08:46:32.103Z,11.18
2018-09-09T08:52:27.075Z,11.68
2018-09-09T08:58:22.081Z,17.88
2018-09-09T09:04:17.049Z,13.45
2018-09-09T09:10:12.056Z,12
2018-09-09T09:16:07.109Z,15.68
2018-09-09T09:22:02.147Z,12.24
2018-09-09T09:27:57.087Z,11.27
2018-09-09T09:33:52.081Z,13.98
2018-09-09T09:39:47.154Z,10.52
2018-09-09T09:45:42.076Z,15.77
2018-09-09T09:51:37.110Z,34.67
2018-09-09T09:57:32.123Z,13.03
2018-09-09T10:03:27.120Z,11.68
2018-09-09T10:09:22.112Z,8.22
2018-09-09T10:15:17.178Z,10.21
2018-09-09T10:21:12.125Z,8.41
2018-09-09T10:27:07.130Z,10.35
2018-09-09T10:33:02.125Z,6.89
2018-09-09T10:38:57.155Z,8.17
2018-09-09T10:44:52.124Z,8.08
2018-09-09T10:50:47.127Z,7.63
2018-09-09T10:56:42.139Z,6.44
2018-09-09T11:02:37.158Z,5.85
2018-09-09T11:08:32.157Z,5.77
2018-09-09T11:14:27.192Z,6.28
2018-09-09T11:20:22.150Z,4.49
2018-09-09T11:26:17.145Z,3.77
2018-09-09T11:32:12.212Z,10.92
2018-09-09T11:38:07.177Z,3.44
2018-09-09T11:44:02.171Z,5.23
2018-09-09T11:49:57.164Z,3.77
2018-09-09T11:55:52.163Z,3.33
2018-09-09T12:01:47.179Z,3.46
2018-09-09T12:07:42.178Z,3.51
2018-09-09T12:13:37.240Z,4.83
2018-09-09T12:19:32.206Z,3.48
2018-09-09T12:25:27.219Z,3.86
2018-09-09T12:31:22.179Z,4.13
2018-09-09T12:37:17.182Z,3.63
2018-09-09T12:43:12.197Z,5.07
2018-09-09T12:49:07.208Z,3.63
2018-09-09T12:55:02.273Z,5.08
2018-09-09T13:00:57.236Z,5.23
2018-09-09T13:06:52.245Z,5.9
2018-09-09T13:12:47.228Z,3.68
2018-09-09T13:18:42.233Z,3.07
2018-09-09T13:24:37.240Z,3.43
2018-09-09T13:30:32.235Z,4.37
2018-09-09T13:36:27.241Z,2.8
2018-09-09T13:42:22.296Z,2.9
2018-09-09T13:48:17.324Z,2.58
2018-09-09T13:54:12.240Z,2.62
2018-09-09T14:00:07.250Z,3.6
2018-09-09T14:06:02.252Z,5.11
2018-09-09T14:11:57.316Z,4.93
2018-09-09T14:17:52.264Z,2.37
2018-09-09T14:23:47.251Z,3.09
2018-09-09T14:29:42.322Z,2.98
2018-09-09T14:35:37.328Z,4.38
2018-09-09T14:41:32.274Z,6.29
2018-09-09T14:47:27.295Z,4.66
2018-09-09T14:53:22.359Z,5.53
2018-09-09T14:59:17.284Z,5.43
2018-09-09T15:05:12.292Z,7.06
2018-09-09T15:11:07.300Z,5.47
2018-09-09T15:17:02.302Z,5.03
2018-09-09T15:22:57.330Z,4.95
2018-09-09T15:28:52.434Z,6.81
2018-09-09T15:34:47.305Z,6.87
2018-09-09T15:40:42.325Z,7.22
2018-09-09T15:46:37.387Z,5
2018-09-09T15:52:32.319Z,5.85
2018-09-09T15:58:27.327Z,5.2
2018-09-09T16:04:22.384Z,7.01
2018-09-09T16:10:17.351Z,4.87
2018-09-09T16:16:12.376Z,6.75
2018-09-09T16:22:07.362Z,5.7
2018-09-09T16:28:02.348Z,10.65
2018-09-09T16:33:57.330Z,6.01
2018-09-09T16:39:52.363Z,6.2
2018-09-09T16:45:47.417Z,4.65
2018-09-09T16:51:42.355Z,5.61
2018-09-09T16:57:37.372Z,8.44
2018-09-09T17:03:32.377Z,5.48
2018-09-09T17:09:27.389Z,7.9
2018-09-09T17:15:22.370Z,5.44
2018-09-09T17:21:17.382Z,6.01
2018-09-09T17:27:12.400Z,6.82
2018-09-09T17:33:07.414Z,6.47
2018-09-09T17:39:02.409Z,4.37
2018-09-09T17:44:57.387Z,8.81
2018-09-09T17:50:52.400Z,17.22
2018-09-09T17:56:47.411Z,17.83
2018-09-09T18:02:42.509Z,17.98
2018-09-09T18:08:37.442Z,21.75
2018-09-09T18:14:32.404Z,15.34
2018-09-09T18:20:27.486Z,8.75
2018-09-09T18:26:22.419Z,13.95
2018-09-09T18:32:17.444Z,15.84
2018-09-09T18:38:12.459Z,14
2018-09-09T18:44:07.443Z,11.67
2018-09-09T18:50:02.437Z,12.28
2018-09-09T18:55:57.434Z,10.24
2018-09-09T19:01:52.465Z,10.9
2018-09-09T19:07:47.475Z,10.48
2018-09-09T19:13:42.464Z,19.36
2018-09-09T19:19:37.451Z,14.36
2018-09-09T19:25:32.514Z,13.76
2018-09-09T19:31:27.463Z,11.84
2018-09-09T19:37:22.478Z,11.86
2018-09-09T19:43:17.477Z,10.91
2018-09-09T19:49:12.506Z,12.43
2018-09-09T19:55:07.476Z,12.83
2018-09-09T20:01:02.497Z,16.19
2018-09-09T20:06:57.484Z,10.59
2018-09-09T20:12:52.481Z,14.91
2018-09-09T20:18:47.507Z,13.6
2018-09-09T20:24:42.487Z,23.4
2018-09-09T20:30:37.501Z,14.39
2018-09-09T20:36:32.515Z,13.43
2018-09-09T20:42:27.512Z,20.07
2018-09-09T20:48:22.514Z,12.18
2018-09-09T20:54:17.553Z,13.28
2018-09-09T21:00:12.620Z,14.14
2018-09-09T21:06:07.519Z,13.63
2018-09-09T21:12:02.533Z,12.88
2018-09-09T21:17:57.522Z,14.83
2018-09-09T21:23:52.579Z,13.73
2018-09-09T21:29:47.525Z,15.04
2018-09-09T21:35:42.541Z,30.05
2018-09-09T21:41:37.547Z,19.16
2018-09-09T21:47:32.541Z,15.3
2018-09-09T21:53:27.556Z,22.39
2018-09-09T21:59:22.573Z,15.64
2018-09-09T22:05:17.581Z,13.41
2018-09-09T22:11:12.574Z,15.27
2018-09-09T22:17:07.574Z,14.1
2018-09-09T22:23:02.571Z,16.28
2018-09-09T22:28:57.606Z,14.14
2018-09-09T22:34:52.578Z,12.39
2018-09-09T22:40:47.578Z,13.81
2018-09-09T22:46:42.585Z,20.32
2018-09-09T22:52:37.585Z,13.33
2018-09-09T22:58:32.587Z,15.51
2018-09-09T23:04:27.636Z,21.18
2018-09-09T23:10:22.648Z,20.44
2018-09-09T23:16:17.652Z,15.88
2018-09-09T23:22:12.629Z,18.34
2018-09-09T23:28:07.617Z,16.12
2018-09-09T23:34:02.675Z,19.2
2018-09-09T23:39:57.633Z,15.64
2018-09-09T23:45:52.633Z,15.37
2018-09-09T23:51:47.626Z,18.8
2018-09-09T23:57:42.660Z,24.45
